Time;durP1;ratioP1;P1;durP2;ratioP2;P2;SDS_P1;SDS_P2;PMS_P1;PMS_P2;Temp;Humidity;BMP_temperature;BMP_pressure;BME280_temperature;BME280_humidity;BME280_pressure;Samples;Min_cycle;Max_cycle;Signal;HPM_P1;HPM_P2
2021/11/16 00:00:07;;;;;;;48.23;39.03;;;;;21.90;101311.00;;;;2072670;28;20214;-66
2021/11/16 00:01:09;;;;;;;47.17;39.97;;;;;21.80;101318.00;;;;2074597;28;20222;-66
2021/11/16 00:02:09;;;;;;;46.72;36.97;;;;;21.70;101316.00;;;;2075251;28;20245;-66
2021/11/16 00:03:10;;;;;;;40.67;35.83;;;;;21.80;101319.00;;;;2074868;28;21638;-66
2021/11/16 00:04:11;;;;;;;37.77;33.67;;;;;21.90;101318.00;;;;2074881;28;20806;-66
2021/11/16 00:05:11;;;;;;;36.83;32.83;;;;;22.10;101325.00;;;;2074203;28;20226;-66
2021/11/16 00:06:11;;;;;;;41.80;34.83;;;;;22.10;101319.00;;;;2074857;28;20220;-66
2021/11/16 00:07:12;;;;;;;39.50;33.30;;;;;22.20;101324.00;;;;2077763;28;20232;-66
2021/11/16 00:08:12;;;;;;;38.77;32.10;;;;;22.20;101325.00;;;;2078414;28;20975;-66
2021/11/16 00:09:13;;;;;;;37.30;31.90;;;;;22.20;101295.00;;;;2078377;28;20831;-66
2021/11/16 00:10:13;;;;;;;36.00;32.07;;;;;22.20;101322.00;;;;2075550;28;20630;-66
2021/11/16 00:11:13;;;;;;;35.57;31.60;;;;;22.20;101327.00;;;;2075867;28;20580;-66
2021/11/16 00:12:14;;;;;;;34.70;29.73;;;;;22.20;101322.00;;;;2076036;28;20233;-66
2021/11/16 00:13:14;;;;;;;34.93;31.33;;;;;22.20;101322.00;;;;2075380;28;20240;-67
2021/11/16 00:14:16;;;;;;;35.87;31.97;;;;;22.20;101322.00;;;;2075173;28;20218;-67
2021/11/16 00:15:16;;;;;;;33.03;29.63;;;;;22.20;101325.00;;;;2073499;28;20673;-67
2021/11/16 00:16:17;;;;;;;34.63;30.23;;;;;22.20;101321.00;;;;2075057;28;20213;-66
2021/11/16 00:17:17;;;;;;;33.40;29.77;;;;;22.20;101323.00;;;;2074836;28;21101;-66
2021/11/16 00:18:19;;;;;;;34.03;29.97;;;;;22.20;101319.00;;;;2075811;28;20265;-67
2021/11/16 00:19:19;;;;;;;33.28;29.70;;;;;22.20;101322.00;;;;2079838;28;20855;-66
2021/11/16 00:20:20;;;;;;;33.70;30.13;;;;;22.20;101320.00;;;;2079086;28;20309;-67
2021/11/16 00:21:23;;;;;;;32.67;29.17;;;;;22.20;101276.00;;;;2077851;28;20221;-67
2021/11/16 00:22:24;;;;;;;34.60;30.90;;;;;22.20;101321.00;;;;2066968;28;20214;-66
2021/11/16 00:23:32;;;;;;;35.30;29.83;;;;;22.20;101324.00;;;;2066277;28;20210;-67
2021/11/16 00:24:56;;;;;;;32.60;29.10;;;;;22.20;101318.00;;;;2076640;28;20264;-66
2021/11/16 00:25:55;;;;;;;31.45;28.15;;;;;22.20;101311.00;;;;2064927;28;20210;-66
2021/11/16 00:26:55;;;;;;;36.00;30.45;;;;;22.10;101319.00;;;;2071333;28;20268;-67
2021/11/16 00:27:55;;;;;;;31.80;28.50;;;;;22.10;101315.00;;;;2075433;28;20630;-67
2021/11/16 00:28:56;;;;;;;31.40;27.03;;;;;22.10;101316.00;;;;2075655;28;20676;-67
2021/11/16 00:29:56;;;;;;;30.73;27.40;;;;;22.10;101311.00;;;;2075706;28;20674;-67
2021/11/16 00:30:56;;;;;;;30.93;27.53;;;;;22.10;101306.00;;;;2069230;28;20579;-67
2021/11/16 00:31:57;;;;;;;29.73;26.73;;;;;22.10;101305.00;;;;2072306;28;20206;-67
2021/11/16 00:32:57;;;;;;;30.07;26.77;;;;;22.20;101311.00;;;;2082732;28;20204;-67
2021/11/16 00:33:58;;;;;;;29.70;25.77;;;;;22.10;101307.00;;;;2075284;28;20206;-67
2021/11/16 00:34:59;;;;;;;29.63;26.52;;;;;22.10;101308.00;;;;2054894;28;20582;-66
2021/11/16 00:35:59;;;;;;;29.70;25.57;;;;;22.10;101306.00;;;;2058211;28;20235;-66
2021/11/16 00:37:00;;;;;;;27.73;24.83;;;;;22.10;101308.00;;;;2074817;28;20214;-67
2021/11/16 00:38:01;;;;;;;27.67;24.73;;;;;22.10;101312.00;;;;2067267;28;20218;-67
2021/11/16 00:39:01;;;;;;;29.70;26.50;;;;;22.00;101300.00;;;;2074122;28;20218;-67
2021/11/16 00:40:07;;;;;;;28.37;25.00;;;;;22.10;101300.00;;;;2067937;28;20213;-67
2021/11/16 00:41:08;;;;;;;28.55;25.48;;;;;22.00;101304.00;;;;2084536;28;20217;-67
2021/11/16 00:42:08;;;;;;;30.27;24.67;;;;;22.00;101298.00;;;;2083057;28;20252;-66
2021/11/16 00:43:09;;;;;;;29.83;24.80;;;;;22.00;101298.00;;;;2066870;28;20225;-66
2021/11/16 00:44:09;;;;;;;25.63;22.93;;;;;22.00;101288.00;;;;2075209;28;20205;-66
2021/11/16 00:45:10;;;;;;;27.90;23.67;;;;;22.00;101287.00;;;;2074679;28;20244;-66
2021/11/16 00:46:10;;;;;;;26.70;23.83;;;;;22.00;101293.00;;;;2074352;28;20240;-67
2021/11/16 00:47:11;;;;;;;28.27;25.17;;;;;22.00;101294.00;;;;2074572;28;20331;-66
2021/11/16 00:48:11;;;;;;;26.80;23.43;;;;;22.00;101293.00;;;;2077848;28;20259;-67
2021/11/16 00:49:12;;;;;;;26.63;23.90;;;;;22.00;101288.00;;;;2075230;28;20832;-66
2021/11/16 00:50:15;;;;;;;28.23;25.03;;;;;22.00;101287.00;;;;2071838;28;20764;-66
2021/11/16 00:51:15;;;;;;;24.73;22.15;;;;;22.00;101293.00;;;;2075133;28;20652;-67
2021/11/16 00:52:16;;;;;;;25.30;22.60;;;;;22.00;101292.00;;;;2078224;28;20237;-67
2021/11/16 00:53:16;;;;;;;24.57;22.07;;;;;22.00;101293.00;;;;2077365;28;20251;-66
2021/11/16 00:54:17;;;;;;;25.07;22.43;;;;;22.00;101295.00;;;;2076446;28;20205;-66
2021/11/16 00:55:17;;;;;;;26.10;23.30;;;;;21.90;101292.00;;;;2060990;28;20233;-66
2021/11/16 00:56:17;;;;;;;25.73;22.83;;;;;22.00;101287.00;;;;2074637;28;20210;-66
2021/11/16 00:57:18;;;;;;;24.20;21.60;;;;;22.00;101286.00;;;;2071464;28;20205;-66
2021/11/16 00:58:18;;;;;;;23.53;21.03;;;;;22.00;101284.00;;;;2083361;28;20229;-66
2021/11/16 00:59:19;;;;;;;25.73;23.03;;;;;21.90;101275.00;;;;2077458;28;20989;-66
2021/11/16 01:00:19;;;;;;;25.13;22.33;;;;;21.90;101282.00;;;;2065193;28;20247;-66
2021/11/16 01:01:19;;;;;;;23.90;21.37;;;;;22.00;101283.00;;;;2083491;28;20224;-66
2021/11/16 01:02:20;;;;;;;23.70;21.20;;;;;21.90;101278.00;;;;2079591;28;20221;-66
2021/11/16 01:03:20;;;;;;;23.10;20.70;;;;;21.90;101270.00;;;;2075823;28;20213;-66
2021/11/16 01:04:21;;;;;;;23.90;21.50;;;;;21.90;101275.00;;;;2075511;28;20228;-66
2021/11/16 01:05:22;;;;;;;23.17;20.77;;;;;21.90;101270.00;;;;2068783;28;20305;-66
2021/11/16 01:06:22;;;;;;;23.90;21.40;;;;;21.90;101272.00;;;;2073972;28;20217;-66
2021/11/16 01:07:23;;;;;;;25.07;22.47;;;;;21.90;101283.00;;;;2074914;28;20237;-66
2021/11/16 01:08:23;;;;;;;22.30;20.10;;;;;21.90;101267.00;;;;2075763;28;20229;-68
2021/11/16 01:09:23;;;;;;;25.40;22.70;;;;;21.90;101280.00;;;;2075042;28;20229;-68
2021/11/16 01:10:24;;;;;;;22.57;20.27;;;;;21.90;101277.00;;;;2074110;28;20703;-68
2021/11/16 01:11:24;;;;;;;24.63;20.67;;;;;21.90;101275.00;;;;2074503;28;20322;-68
2021/11/16 01:12:25;;;;;;;22.00;19.80;;;;;21.90;101277.00;;;;2065999;28;20614;-68
2021/11/16 01:13:26;;;;;;;22.77;20.58;;;;;21.90;101274.00;;;;2072523;28;20218;-68
2021/11/16 01:14:26;;;;;;;22.20;19.83;;;;;21.90;101280.00;;;;2075135;28;20290;-68
2021/11/16 01:15:26;;;;;;;22.30;20.00;;;;;21.90;101279.00;;;;2067067;28;20225;-68
2021/11/16 01:16:27;;;;;;;21.87;19.57;;;;;21.90;101279.00;;;;2074389;28;20218;-68
2021/11/16 01:17:27;;;;;;;23.67;20.97;;;;;21.90;101276.00;;;;2075763;28;20225;-68
2021/11/16 01:18:28;;;;;;;22.77;20.37;;;;;21.90;101279.00;;;;2075765;28;20260;-68
2021/11/16 01:19:28;;;;;;;20.97;18.87;;;;;21.90;101278.00;;;;2075818;28;20752;-68
2021/11/16 01:20:29;;;;;;;22.33;19.93;;;;;21.90;101277.00;;;;2068648;28;20245;-68
2021/11/16 01:21:29;;;;;;;23.20;20.70;;;;;21.90;101275.00;;;;2082704;28;20205;-69
2021/11/16 01:22:30;;;;;;;21.73;19.50;;;;;21.90;101275.00;;;;2079315;28;20987;-68
2021/11/16 01:23:30;;;;;;;20.87;18.47;;;;;21.80;101269.00;;;;2076876;28;20213;-69
2021/11/16 01:24:30;;;;;;;22.57;20.30;;;;;21.90;101273.00;;;;2076118;28;20300;-68
2021/11/16 01:25:36;;;;;;;21.40;19.40;;;;;21.90;101266.00;;;;2075131;28;20356;-68
2021/11/16 01:26:37;;;;;;;19.15;17.35;;;;;21.90;101273.00;;;;2074765;28;20212;-68
2021/11/16 01:27:38;;;;;;;20.10;18.00;;;;;21.90;101271.00;;;;2074672;28;20210;-69
2021/11/16 01:28:38;;;;;;;22.27;19.98;;;;;21.80;101275.00;;;;2074954;28;20235;-69
2021/11/16 01:29:40;;;;;;;20.07;18.07;;;;;21.80;101274.00;;;;2074632;28;20284;-69
2021/11/16 01:30:44;;;;;;;20.67;18.58;;;;;21.80;101276.00;;;;2074755;28;20336;-68
2021/11/16 01:31:44;;;;;;;20.83;18.77;;;;;21.80;101267.00;;;;2075113;28;20304;-68
2021/11/16 01:32:48;;;;;;;20.53;18.37;;;;;21.80;101283.00;;;;2075396;28;20692;-69
2021/11/16 01:33:54;;;;;;;21.35;19.15;;;;;21.80;101281.00;;;;2075453;28;20272;-68
2021/11/16 01:34:54;;;;;;;21.20;19.00;;;;;21.80;101273.00;;;;2075026;28;20213;-68
2021/11/16 01:35:55;;;;;;;20.87;18.77;;;;;21.80;101277.00;;;;2074397;28;20297;-68
2021/11/16 01:36:56;;;;;;;19.33;17.45;;;;;21.80;101276.00;;;;2074898;28;20272;-68
2021/11/16 01:37:56;;;;;;;21.07;18.97;;;;;21.80;101273.00;;;;2074857;28;20739;-68
2021/11/16 01:38:58;;;;;;;19.67;17.67;;;;;21.80;101272.00;;;;2074581;28;20209;-69
2021/11/16 01:39:59;;;;;;;18.52;16.63;;;;;21.80;101281.00;;;;2075220;28;20225;-68
2021/11/16 01:40:59;;;;;;;19.80;17.90;;;;;21.80;101279.00;;;;2075486;28;20221;-68
2021/11/16 01:42:00;;;;;;;19.80;17.70;;;;;21.80;101271.00;;;;2075341;28;20329;-69
2021/11/16 01:43:01;;;;;;;19.90;17.10;;;;;21.80;101275.00;;;;2066463;28;20321;-69
2021/11/16 01:44:01;;;;;;;19.73;17.67;;;;;21.80;101281.00;;;;2066247;28;20214;-69
2021/11/16 01:45:03;;;;;;;17.97;16.17;;;;;21.80;101278.00;;;;2073769;28;20220;-68
2021/11/16 01:46:08;;;;;;;18.70;16.80;;;;;21.80;101272.00;;;;2073145;28;20228;-68
2021/11/16 01:47:08;;;;;;;19.25;17.27;;;;;21.80;101264.00;;;;2074130;28;20751;-68
2021/11/16 01:48:09;;;;;;;18.60;16.70;;;;;21.80;101265.00;;;;2066318;28;20230;-68
2021/11/16 01:49:10;;;;;;;19.40;17.27;;;;;21.80;101264.00;;;;2074282;28;20214;-68
2021/11/16 01:50:11;;;;;;;17.87;16.07;;;;;21.80;101258.00;;;;2074277;28;20293;-68
2021/11/16 01:51:11;;;;;;;18.13;16.40;;;;;21.80;101260.00;;;;2074004;28;20218;-69
2021/11/16 01:52:11;;;;;;;18.10;16.20;;;;;21.80;101257.00;;;;2069571;28;20854;-69
2021/11/16 01:53:12;;;;;;;18.07;16.17;;;;;21.80;101261.00;;;;2077137;28;20220;-67
2021/11/16 01:54:12;;;;;;;18.33;16.47;;;;;21.70;101260.00;;;;2076063;28;20690;-67
2021/11/16 01:55:13;;;;;;;17.97;16.27;;;;;21.80;101259.00;;;;2075870;28;20734;-67
2021/11/16 01:56:14;;;;;;;18.30;16.40;;;;;21.80;101265.00;;;;2074167;28;20213;-67
2021/11/16 01:57:14;;;;;;;18.23;16.40;;;;;21.70;101271.00;;;;2074545;28;20885;-67
2021/11/16 01:58:14;;;;;;;17.30;15.50;;;;;21.70;101267.00;;;;2074552;28;20271;-67
2021/11/16 01:59:18;;;;;;;18.70;16.90;;;;;21.70;101267.00;;;;2074640;28;20210;-67
2021/11/16 02:00:22;;;;;;;18.33;16.52;;;;;21.70;101263.00;;;;2071825;28;20214;-67
2021/11/16 02:01:22;;;;;;;17.42;15.73;;;;;21.70;101262.00;;;;2066464;28;20210;-67
2021/11/16 02:02:22;;;;;;;17.73;15.97;;;;;21.60;101262.00;;;;2076103;28;20861;-66
2021/11/16 02:03:23;;;;;;;18.13;16.23;;;;;21.70;101267.00;;;;2076818;28;20201;-66
2021/11/16 02:04:23;;;;;;;17.20;15.47;;;;;21.70;101257.00;;;;2075519;28;20217;-67
2021/11/16 02:05:46;;;;;;;17.87;15.97;;;;;21.70;101251.00;;;;2076120;28;20452;-66
2021/11/16 02:06:47;;;;;;;17.58;15.75;;;;;21.70;101251.00;;;;2076173;28;20844;-67
2021/11/16 02:07:47;;;;;;;17.23;15.53;;;;;21.70;101258.00;;;;2076914;28;20228;-66
2021/11/16 02:08:48;;;;;;;17.63;15.83;;;;;21.70;101243.00;;;;2076766;28;20228;-67
2021/11/16 02:09:49;;;;;;;17.08;15.27;;;;;21.70;101255.00;;;;2076257;28;20214;-66
2021/11/16 02:10:51;;;;;;;17.47;15.67;;;;;21.70;101253.00;;;;2072644;28;20221;-67
2021/11/16 02:11:53;;;;;;;16.70;15.00;;;;;21.70;101251.00;;;;2078288;28;20213;-67
2021/11/16 02:12:53;;;;;;;17.35;15.55;;;;;21.70;101254.00;;;;2076203;28;20261;-66
2021/11/16 02:13:53;;;;;;;18.00;16.20;;;;;21.70;101251.00;;;;2075904;28;20715;-67
2021/11/16 02:14:54;;;;;;;16.50;14.90;;;;;21.70;101247.00;;;;2075976;28;20770;-66
2021/11/16 02:15:54;;;;;;;16.47;14.87;;;;;21.70;101239.00;;;;2075518;28;20224;-67
2021/11/16 02:16:54;;;;;;;17.30;15.50;;;;;21.70;101248.00;;;;2076012;28;20217;-66
2021/11/16 02:17:55;;;;;;;16.30;14.60;;;;;21.50;101246.00;;;;2067990;28;20225;-67
2021/11/16 02:18:55;;;;;;;16.23;13.90;;;;;21.70;101240.00;;;;2067875;28;20221;-67
2021/11/16 02:19:56;;;;;;;16.37;14.83;;;;;21.70;101245.00;;;;2076901;28;20339;-67
2021/11/16 02:20:56;;;;;;;15.80;14.30;;;;;21.70;101246.00;;;;2075609;28;20209;-67
2021/11/16 02:21:57;;;;;;;15.73;14.13;;;;;21.70;101242.00;;;;2077893;28;20218;-66
2021/11/16 02:22:57;;;;;;;16.23;14.73;;;;;21.70;101238.00;;;;2078566;28;20206;-66
2021/11/16 02:23:58;;;;;;;17.37;15.57;;;;;21.70;101238.00;;;;2077528;28;20292;-66
2021/11/16 02:24:58;;;;;;;16.53;14.83;;;;;21.70;101241.00;;;;2077231;28;20202;-66
2021/11/16 02:25:59;;;;;;;15.70;14.10;;;;;21.70;101232.00;;;;2075440;28;20363;-66
2021/11/16 02:26:59;;;;;;;15.70;14.13;;;;;21.70;101239.00;;;;2076799;28;20615;-67
2021/11/16 02:28:00;;;;;;;16.90;15.20;;;;;21.70;101236.00;;;;2079034;28;20205;-67
2021/11/16 02:29:00;;;;;;;16.50;14.90;;;;;21.70;101235.00;;;;2075662;28;20275;-66
2021/11/16 02:30:02;;;;;;;16.17;14.57;;;;;21.70;101242.00;;;;2079552;28;20210;-67
2021/11/16 02:31:04;;;;;;;15.68;14.07;;;;;21.60;101232.00;;;;2076928;28;20700;-67
2021/11/16 02:32:04;;;;;;;16.73;15.10;;;;;21.60;101234.00;;;;2076329;28;20325;-66
2021/11/16 02:33:05;;;;;;;16.27;14.60;;;;;21.60;101222.00;;;;2076270;28;20225;-66
2021/11/16 02:34:05;;;;;;;16.73;15.13;;;;;21.60;101226.00;;;;2077006;28;20217;-66
2021/11/16 02:35:07;;;;;;;16.60;14.80;;;;;21.70;101226.00;;;;2076020;28;20222;-66
2021/11/16 02:36:07;;;;;;;15.00;13.70;;;;;21.70;101223.00;;;;2075609;28;20217;-66
2021/11/16 02:37:07;;;;;;;16.20;14.70;;;;;21.70;101226.00;;;;2076560;28;20331;-66
2021/11/16 02:38:08;;;;;;;14.90;13.50;;;;;21.70;101225.00;;;;2076718;28;20299;-66
2021/11/16 02:39:09;;;;;;;16.67;14.97;;;;;21.70;101227.00;;;;2075764;28;20217;-66
2021/11/16 02:40:10;;;;;;;15.65;14.05;;;;;21.60;101218.00;;;;2067625;28;20221;-66
2021/11/16 02:41:10;;;;;;;16.17;14.57;;;;;21.60;101229.00;;;;2075872;28;20209;-66
2021/11/16 02:42:11;;;;;;;15.07;13.57;;;;;21.60;101219.00;;;;2076387;28;20225;-66
2021/11/16 02:43:11;;;;;;;15.43;13.83;;;;;21.60;101217.00;;;;2077802;28;20217;-66
2021/11/16 02:44:14;;;;;;;14.80;13.30;;;;;21.60;101222.00;;;;2078651;28;20224;-66
2021/11/16 02:45:14;;;;;;;15.25;13.75;;;;;21.60;101215.00;;;;2080148;28;20224;-66
2021/11/16 02:46:15;;;;;;;15.50;14.00;;;;;21.60;101223.00;;;;2067217;28;20322;-66
2021/11/16 02:47:15;;;;;;;15.50;14.00;;;;;21.60;101223.00;;;;2059859;28;20218;-66
2021/11/16 02:48:15;;;;;;;15.00;13.60;;;;;21.60;101218.00;;;;2075758;28;20205;-66
2021/11/16 02:49:16;;;;;;;15.27;13.67;;;;;21.60;101219.00;;;;2075866;28;20209;-66
2021/11/16 02:50:17;;;;;;;14.23;12.83;;;;;21.60;101214.00;;;;2075802;28;20217;-66
2021/11/16 02:51:17;;;;;;;14.33;12.93;;;;;21.60;101220.00;;;;2075920;28;20591;-66
2021/11/16 02:52:17;;;;;;;14.60;13.20;;;;;21.60;101219.00;;;;2075807;28;20220;-66
2021/11/16 02:53:18;;;;;;;14.43;12.97;;;;;21.60;101222.00;;;;2077760;28;20240;-66
2021/11/16 02:54:19;;;;;;;15.43;13.77;;;;;21.60;101218.00;;;;2078309;28;20206;-66
2021/11/16 02:55:20;;;;;;;15.32;13.68;;;;;21.60;101225.00;;;;2076344;28;20335;-66
2021/11/16 02:56:20;;;;;;;14.73;13.33;;;;;21.60;101240.00;;;;2075649;28;20724;-66
2021/11/16 02:57:21;;;;;;;14.57;13.20;;;;;21.60;101216.00;;;;2075883;28;20490;-67
2021/11/16 02:58:22;;;;;;;14.03;12.63;;;;;21.60;101223.00;;;;2082601;28;20205;-67
2021/11/16 02:59:22;;;;;;;15.40;13.83;;;;;21.60;101216.00;;;;2083977;28;20220;-67
2021/11/16 03:00:22;;;;;;;16.00;14.43;;;;;21.60;101220.00;;;;2075890;28;20213;-67
2021/11/16 03:01:23;;;;;;;14.20;12.80;;;;;21.60;101222.00;;;;2076386;28;20213;-67
2021/11/16 03:02:23;;;;;;;14.87;13.37;;;;;21.60;101218.00;;;;2076382;28;20214;-67
2021/11/16 03:03:24;;;;;;;14.30;12.90;;;;;21.60;101217.00;;;;2076310;28;20216;-67
2021/11/16 03:04:24;;;;;;;15.17;13.73;;;;;21.60;101212.00;;;;2076439;28;20240;-67
2021/11/16 03:05:31;;;;;;;14.00;12.60;;;;;21.40;101220.00;;;;2076523;28;20452;-66
2021/11/16 03:06:32;;;;;;;14.07;12.68;;;;;21.60;101222.00;;;;2075790;28;20217;-67
2021/11/16 03:07:35;;;;;;;13.93;12.63;;;;;21.50;101215.00;;;;2075783;28;20845;-66
2021/11/16 03:08:35;;;;;;;14.13;12.70;;;;;21.50;101214.00;;;;2075591;28;20214;-66
2021/11/16 03:09:36;;;;;;;13.10;11.83;;;;;21.50;101211.00;;;;2075779;28;20209;-66
2021/11/16 03:10:36;;;;;;;14.33;12.93;;;;;21.50;101205.00;;;;2075555;28;20292;-66
2021/11/16 03:11:36;;;;;;;14.23;12.83;;;;;21.60;101210.00;;;;2075738;28;20206;-66
2021/11/16 03:12:37;;;;;;;15.67;14.07;;;;;21.50;101203.00;;;;2075576;28;20206;-66
2021/11/16 03:13:37;;;;;;;15.77;13.90;;;;;21.50;101204.00;;;;2075487;28;20202;-66
2021/11/16 03:14:38;;;;;;;14.43;13.03;;;;;21.50;101212.00;;;;2076010;28;20202;-66
2021/11/16 03:15:40;;;;;;;13.93;12.13;;;;;21.50;101204.00;;;;2075893;28;20210;-66
2021/11/16 03:16:41;;;;;;;13.45;12.20;;;;;21.50;101207.00;;;;2074799;28;20286;-66
2021/11/16 03:17:41;;;;;;;14.63;13.13;;;;;21.50;101212.00;;;;2066357;28;20214;-66
2021/11/16 03:18:48;;;;;;;14.07;12.67;;;;;21.50;101209.00;;;;2075032;28;20603;-66
2021/11/16 03:19:49;;;;;;;14.82;13.32;;;;;21.50;101200.00;;;;2075197;28;20225;-66
2021/11/16 03:20:50;;;;;;;14.48;13.07;;;;;21.50;101197.00;;;;2067017;28;20297;-66
2021/11/16 03:21:55;;;;;;;13.93;12.57;;;;;21.50;101201.00;;;;2052267;28;20610;-66
2021/11/16 03:22:58;;;;;;;16.63;14.65;;;;;21.50;101204.00;;;;2068493;28;20242;-66
2021/11/16 03:23:58;;;;;;;15.45;13.93;;;;;21.50;101207.00;;;;2075646;28;20328;-66
2021/11/16 03:24:59;;;;;;;13.70;12.40;;;;;21.50;101211.00;;;;2076457;28;20210;-67
2021/11/16 03:26:02;;;;;;;13.70;12.30;;;;;21.50;101212.00;;;;2065833;28;20684;-66
2021/11/16 03:27:07;;;;;;;14.80;13.23;;;;;21.50;101207.00;;;;2075221;28;20530;-66
2021/11/16 03:28:10;;;;;;;14.05;12.65;;;;;21.50;101203.00;;;;2067938;28;20215;-66
2021/11/16 03:29:12;;;;;;;14.85;13.35;;;;;21.50;101204.00;;;;2075063;28;20718;-66
2021/11/16 03:30:13;;;;;;;14.82;13.05;;;;;21.50;101208.00;;;;2075881;28;20268;-66
2021/11/16 03:32:35;;;;;;;13.57;12.27;;;;;21.50;101203.00;;;;2070324;28;20718;-66
2021/11/16 03:33:36;;;;;;;13.30;12.00;;;;;21.50;101197.00;;;;2075432;28;20206;-66
2021/11/16 03:34:36;;;;;;;14.07;12.67;;;;;21.50;101194.00;;;;2075529;28;20262;-66
2021/11/16 03:35:37;;;;;;;13.97;12.47;;;;;21.50;101201.00;;;;2074929;28;20210;-66
2021/11/16 03:36:37;;;;;;;13.83;12.53;;;;;21.50;101205.00;;;;2074452;28;20256;-66
2021/11/16 03:37:47;;;;;;;14.13;12.73;;;;;21.40;101198.00;;;;2075055;28;20240;-66
2021/11/16 03:38:48;;;;;;;14.40;12.90;;;;;21.50;101186.00;;;;2068284;28;20289;-66
2021/11/16 03:39:48;;;;;;;14.27;12.20;;;;;21.50;101204.00;;;;2075140;28;20214;-66
2021/11/16 03:40:51;;;;;;;14.03;12.73;;;;;21.50;101194.00;;;;2067093;28;20211;-65
2021/11/16 03:41:51;;;;;;;14.38;12.98;;;;;21.50;101203.00;;;;2075196;28;20647;-66
2021/11/16 03:42:52;;;;;;;14.10;12.80;;;;;21.50;101198.00;;;;2076107;28;20333;-66
2021/11/16 03:43:54;;;;;;;14.30;12.90;;;;;21.40;101197.00;;;;2076166;28;20222;-65
2021/11/16 03:44:54;;;;;;;14.25;12.85;;;;;21.50;101196.00;;;;2076558;28;20218;-66
2021/11/16 03:45:57;;;;;;;14.20;12.80;;;;;21.50;101197.00;;;;2074891;28;20214;-67
2021/11/16 03:46:57;;;;;;;13.52;12.23;;;;;21.50;101191.00;;;;2075701;28;20218;-66
2021/11/16 03:47:58;;;;;;;13.87;12.47;;;;;21.50;101197.00;;;;2076347;28;20302;-66
2021/11/16 03:48:58;;;;;;;14.77;13.27;;;;;21.40;101198.00;;;;2076436;28;20210;-67
2021/11/16 03:49:58;;;;;;;14.13;12.83;;;;;21.40;101194.00;;;;2076430;28;20578;-67
2021/11/16 03:50:59;;;;;;;12.70;11.50;;;;;21.40;101207.00;;;;2076451;28;20210;-67
2021/11/16 03:51:59;;;;;;;13.97;12.67;;;;;21.40;101199.00;;;;2075734;28;20209;-66
2021/11/16 03:52:59;;;;;;;12.80;11.60;;;;;21.40;101200.00;;;;2076011;28;20843;-67
2021/11/16 03:54:00;;;;;;;13.00;11.80;;;;;21.40;101202.00;;;;2075981;28;20351;-66
2021/11/16 03:55:01;;;;;;;14.07;12.77;;;;;21.40;101197.00;;;;2075715;28;20205;-67
2021/11/16 03:56:02;;;;;;;15.07;13.55;;;;;21.40;101196.00;;;;2074387;28;20623;-67
2021/11/16 03:57:02;;;;;;;14.47;13.13;;;;;21.40;101205.00;;;;2066671;28;20229;-66
2021/11/16 03:58:03;;;;;;;13.57;12.27;;;;;21.40;101202.00;;;;2057381;28;20997;-66
2021/11/16 03:59:03;;;;;;;13.73;12.30;;;;;21.40;101200.00;;;;2075404;28;20217;-66
2021/11/16 04:00:10;;;;;;;14.63;13.17;;;;;21.40;101199.00;;;;2075599;28;20312;-66
2021/11/16 04:01:10;;;;;;;13.32;12.02;;;;;21.40;101206.00;;;;2075378;28;20823;-67
2021/11/16 04:02:11;;;;;;;14.00;12.60;;;;;21.40;101196.00;;;;2075761;28;20276;-66
2021/11/16 04:03:11;;;;;;;13.10;11.80;;;;;21.40;101197.00;;;;2075964;28;20692;-66
2021/11/16 04:04:13;;;;;;;13.13;11.80;;;;;21.40;101198.00;;;;2075885;28;20212;-67
2021/11/16 04:05:13;;;;;;;14.30;11.95;;;;;21.40;101193.00;;;;2075587;28;20700;-66
2021/11/16 04:06:14;;;;;;;13.03;11.83;;;;;21.50;101201.00;;;;2073172;28;20280;-66
2021/11/16 04:07:14;;;;;;;13.40;12.10;;;;;21.40;101210.00;;;;2070687;28;20220;-66
2021/11/16 04:08:15;;;;;;;14.07;12.63;;;;;21.40;101208.00;;;;2083128;28;21001;-66
2021/11/16 04:09:16;;;;;;;14.47;13.07;;;;;21.40;101199.00;;;;2077575;28;20728;-66
2021/11/16 04:10:16;;;;;;;13.47;12.17;;;;;21.40;101200.00;;;;2075772;28;20249;-66
2021/11/16 04:11:16;;;;;;;13.37;12.10;;;;;21.40;101198.00;;;;2076049;28;20461;-66
2021/11/16 04:12:17;;;;;;;13.10;11.80;;;;;21.40;101197.00;;;;2075447;28;20214;-66
2021/11/16 04:13:17;;;;;;;13.50;12.30;;;;;21.40;101197.00;;;;2076095;28;20206;-66
2021/11/16 04:14:18;;;;;;;13.90;12.53;;;;;21.40;101201.00;;;;2075593;28;20214;-66
2021/11/16 04:15:21;;;;;;;12.43;11.23;;;;;21.40;101198.00;;;;2075336;28;20264;-66
2021/11/16 04:16:22;;;;;;;13.30;12.02;;;;;21.40;101196.00;;;;2075431;28;20210;-66
2021/11/16 04:17:23;;;;;;;13.70;12.40;;;;;21.40;101199.00;;;;2075350;28;20565;-66
2021/11/16 04:18:23;;;;;;;14.03;12.63;;;;;21.40;101194.00;;;;2076200;28;20968;-66
2021/11/16 04:19:23;;;;;;;12.93;11.73;;;;;21.40;101198.00;;;;2076089;28;20640;-66
2021/11/16 04:20:26;;;;;;;13.40;12.10;;;;;21.30;101194.00;;;;2076000;28;20722;-66
2021/11/16 04:21:27;;;;;;;14.65;13.15;;;;;21.40;101193.00;;;;2075203;28;20214;-66
2021/11/16 04:22:27;;;;;;;13.30;12.10;;;;;21.40;101203.00;;;;2074176;28;20305;-66
2021/11/16 04:23:27;;;;;;;14.77;13.30;;;;;21.40;101197.00;;;;2075906;28;20210;-66
2021/11/16 04:24:28;;;;;;;13.90;12.63;;;;;21.40;101209.00;;;;2075434;28;20213;-66
2021/11/16 04:25:28;;;;;;;12.83;11.63;;;;;21.30;101199.00;;;;2079031;28;20217;-66
2021/11/16 04:26:29;;;;;;;13.67;12.27;;;;;21.30;101208.00;;;;2075152;28;20220;-66
2021/11/16 04:27:29;;;;;;;13.50;12.20;;;;;21.30;101202.00;;;;2075889;28;20288;-66
2021/11/16 04:28:29;;;;;;;13.73;12.33;;;;;21.30;101201.00;;;;2075905;28;20292;-65
2021/11/16 04:29:30;;;;;;;12.63;11.43;;;;;21.30;101200.00;;;;2075817;28;20271;-66
2021/11/16 04:30:30;;;;;;;13.60;12.20;;;;;21.30;101205.00;;;;2075476;28;20221;-66
2021/11/16 04:31:31;;;;;;;14.13;12.77;;;;;21.30;101202.00;;;;2075798;28;20210;-66
2021/11/16 04:32:31;;;;;;;12.80;11.57;;;;;21.30;101194.00;;;;2075771;28;20218;-66
2021/11/16 04:33:31;;;;;;;13.77;12.47;;;;;21.30;101193.00;;;;2075812;28;20316;-66
2021/11/16 04:34:32;;;;;;;12.60;11.40;;;;;21.30;101192.00;;;;2075102;28;20210;-66
2021/11/16 04:35:32;;;;;;;12.77;11.50;;;;;21.30;101195.00;;;;2075369;28;20739;-66
2021/11/16 04:36:33;;;;;;;13.33;12.03;;;;;21.30;101200.00;;;;2075171;28;20680;-66
2021/11/16 04:37:34;;;;;;;12.82;11.52;;;;;21.30;101199.00;;;;2075259;28;20660;-66
2021/11/16 04:38:34;;;;;;;13.80;12.40;;;;;21.30;101196.00;;;;2075013;28;20221;-66
2021/11/16 04:39:34;;;;;;;12.50;11.30;;;;;21.30;101198.00;;;;2075852;28;20228;-66
2021/11/16 04:40:38;;;;;;;13.20;11.90;;;;;21.30;101192.00;;;;2075942;28;20225;-66
2021/11/16 04:41:39;;;;;;;13.10;11.90;;;;;21.30;101197.00;;;;2075594;28;20206;-66
2021/11/16 04:42:39;;;;;;;13.63;12.33;;;;;21.30;101200.00;;;;2075935;28;20222;-66
2021/11/16 04:43:40;;;;;;;13.23;11.93;;;;;21.30;101195.00;;;;2074600;28;20256;-66
2021/11/16 04:44:41;;;;;;;14.10;12.80;;;;;21.30;101199.00;;;;2075931;28;20259;-66
2021/11/16 04:45:41;;;;;;;14.20;12.90;;;;;21.30;101195.00;;;;2075289;28;20860;-66
2021/11/16 04:46:42;;;;;;;13.07;11.73;;;;;21.30;101197.00;;;;2074486;28;20213;-66
2021/11/16 04:47:51;;;;;;;13.60;12.20;;;;;21.30;101191.00;;;;2075107;28;20241;-66
2021/11/16 04:49:00;;;;;;;13.18;11.98;;;;;21.30;101193.00;;;;2075733;28;20722;-66
2021/11/16 04:50:10;;;;;;;12.77;11.52;;;;;21.30;101198.00;;;;2075826;28;20707;-66
2021/11/16 04:51:38;;;;;;;13.48;12.18;;;;;21.30;101193.00;;;;2075768;28;20225;-67
2021/11/16 04:55:24;;;;;;;13.45;12.15;;;;;21.30;101193.00;;;;2078196;28;20225;-66
2021/11/16 05:02:46;;;;;;;13.80;12.43;;;;;21.30;101198.00;;;;2075542;28;20863;-66
2021/11/16 05:03:46;;;;;;;14.13;12.83;;;;;21.30;101193.00;;;;2075580;28;20210;-64
2021/11/16 05:04:47;;;;;;;13.60;12.33;;;;;21.30;101197.00;;;;2075562;28;20560;-66
2021/11/16 05:05:47;;;;;;;14.13;12.73;;;;;21.30;101198.00;;;;2074932;28;20302;-66